Latest Weather Observations for Albany Airport

IDW60801

Issued at 12:05 pm WST Wednesday 16 April 2014 (issued every 30 minutes, with the page automatically refreshed every 10 minutes)

About weather observations | Map of weather stations | Latest weather observations for WA | Other Formats
Station Details ID: 009999 Name: ALBANY AIRPORT Lat: -34.94 Lon: 117.82 Height: 68.4 m
Data from the previous 72 hours. | See also: Recent months at Albany Airport
Date/Time
WST
Temp
°C
App
Temp
°C
Dew
Point
Rel
Hum
%
Delta-T
°C
Wind Press
QNH
hPa
Press
MSL
hPa
Rain
since 9 am
mm
Dir
 
Spd
km/h
Gust
km/h
Spd
kts
Gust
kts
16/12:00pm 18.8 15.1 9.5 54 4.9 WNW 19 24 10 13 1021.7 1021.7 0.0
16/11:30am 18.6 15.3 9.7 56 4.7 WNW 17 24 9 13 1022.1 - 0.0
16/11:00am 18.9 15.7 10.1 56 4.7 NW 17 24 9 13 1022.3 - 0.0
16/10:30am 18.3 16.0 10.5 60 4.2 NW 13 20 7 11 1022.4 - 0.0
16/10:00am 17.6 15.5 11.3 66 3.4 NNW 13 17 7 9 1022.7 - 0.0
16/09:30am 17.3 15.9 12.2 72 2.8 NW 11 15 6 8 1022.8 - 0.0
16/09:00am 16.4 14.9 11.8 74 2.5 NW 11 13 6 7 1022.9 1022.9 1.6
16/08:30am 16.1 15.4 11.9 76 2.3 N 7 9 4 5 1022.8 - 1.6
16/08:00am 15.2 15.4 11.9 81 1.8 N 2 7 1 4 1022.7 - 1.6
16/07:30am 14.6 13.9 12.0 84 1.4 N 7 11 4 6 1022.5 - 1.6
16/07:00am 14.0 13.6 12.3 89 0.9 N 6 7 3 4 1022.2 - 1.6
16/06:30am 14.1 13.8 11.5 84 1.4 NNW 4 7 2 4 1022.0 - 1.6
16/06:00am 13.9 14.1 12.0 88 1.0 NW 2 7 1 4 1021.8 1021.8 1.6
16/05:30am 14.0 12.9 12.0 88 1.1 WNW 9 11 5 6 1021.8 - 1.6
16/05:00am 13.7 12.2 11.8 88 1.0 WNW 11 17 6 9 1021.7 - 1.6
16/04:30am 13.8 12.8 12.3 91 0.8 WNW 9 11 5 6 1021.7 - 1.6
16/04:00am 13.9 12.9 12.4 91 0.8 WNW 9 11 5 6 1021.7 - 1.6
16/03:30am 13.9 12.6 12.4 91 0.8 WNW 11 13 6 7 1021.6 - 1.6
16/03:00am 13.9 12.9 12.2 89 0.9 NW 9 11 5 6 1021.6 1021.6 1.6
16/02:30am 13.8 12.4 12.1 89 0.9 WNW 11 13 6 7 1021.6 - 1.6
16/02:00am 13.6 12.2 12.1 91 0.8 WNW 11 13 6 7 1021.9 - 1.6
16/01:30am 13.4 11.9 11.9 91 0.8 NW 11 13 6 7 1022.1 - 1.6
16/01:00am 12.8 11.1 11.3 91 0.8 NW 11 13 6 7 1022.1 - 1.6
16/12:30am 13.4 11.9 11.9 91 0.8 NW 11 13 6 7 1022.1 - 1.6
16/12:00am 13.0 11.5 11.9 93 0.6 WNW 11 11 6 6 1022.0 1022.0 1.4
 
Date/Time
WST
Temp
°C
App
Temp
°C
Dew
Point
Rel
Hum
%
Delta-T
°C
Wind Press
QNH
hPa
Press
MSL
hPa
Rain
since 9 am
mm
Dir
 
Spd
km/h
Gust
km/h
Spd
kts
Gust
kts
15/11:30pm 12.9 11.6 11.4 91 0.8 W 9 9 5 5 1022.1 - 1.4
15/11:00pm 14.3 12.9 12.1 87 1.2 W 11 11 6 6 1022.3 - 1.4
15/10:30pm 14.8 13.7 11.8 82 1.6 WSW 9 11 5 6 1022.5 - 1.4
15/10:00pm 16.2 14.8 12.2 77 2.2 WSW 11 13 6 7 1022.6 - 1.4
15/09:30pm 16.4 15.2 12.8 79 2.0 WSW 11 13 6 7 1022.6 - 1.4
15/09:00pm 16.4 15.3 13.2 81 1.8 WSW 11 17 6 9 1022.4 1022.4 1.4
15/08:30pm 16.2 14.8 13.3 83 1.6 SW 13 17 7 9 1022.1 - 1.4
15/08:00pm 16.1 14.6 13.0 82 1.7 WSW 13 17 7 9 1021.6 - 1.4
15/07:30pm 16.1 14.3 13.2 83 1.6 WSW 15 20 8 11 1021.5 - 1.4
15/07:00pm 16.2 14.3 14.1 87 1.2 WSW 17 20 9 11 1021.3 - 1.4
15/06:30pm 16.1 14.9 15.1 94 0.6 SW 15 22 8 12 1020.8 - 1.4
15/06:24pm 16.2 15.2 15.5 96 0.4 WSW 15 20 8 11 1020.7 - 1.4
15/06:00pm 16.5 15.3 16.0 97 0.3 WSW 17 24 9 13 1020.4 1020.4 1.2
15/05:46pm 16.5 14.2 15.8 96 0.4 WSW 22 30 12 16 1020.1 - 1.0
15/05:30pm 16.8 14.4 16.3 97 0.3 SW 24 39 13 21 1019.8 - 0.6
15/05:11pm 18.0 15.5 17.0 94 0.6 SW 26 41 14 22 1019.3 - 0.0
15/05:08pm 18.2 15.2 16.7 91 0.9 SW 28 41 15 22 1019.2 - 0.0
15/05:00pm 19.4 16.2 16.2 82 1.9 WSW 28 37 15 20 1019.0 - 0.0
15/04:30pm 21.9 19.2 14.6 63 4.3 WSW 22 32 12 17 1018.5 - 0.0
15/04:00pm 22.9 19.7 13.0 53 5.7 W 22 32 12 17 1018.1 - 0.0
15/03:30pm 23.1 19.0 12.8 52 5.9 W 26 37 14 20 1017.9 - 0.0
15/03:00pm 23.8 19.9 12.2 48 6.6 W 24 37 13 20 1017.8 1017.8 0.0
15/02:46pm 23.7 19.0 11.9 47 6.7 W 28 46 15 25 1017.8 - 0.0
15/02:30pm 24.2 19.0 11.6 45 7.1 W 30 43 16 23 1017.6 - 0.0
15/02:00pm 22.9 17.7 11.5 48 6.4 WNW 30 39 16 21 1017.6 - 0.0
15/01:30pm 22.5 18.0 12.5 53 5.7 W 28 39 15 21 1018.0 - 0.0
15/01:00pm 22.2 16.8 12.1 52 5.7 W 32 41 17 22 1017.9 - 0.0
15/12:49pm 22.5 17.8 12.1 51 5.9 W 28 46 15 25 1018.1 - 0.0
15/12:30pm 22.2 17.3 12.5 54 5.5 WSW 30 39 16 21 1018.2 - 0.0
15/12:00pm 22.7 17.0 11.2 48 6.4 W 32 43 17 23 1018.4 1018.4 0.0
15/11:30am 23.0 18.5 12.5 51 6.0 W 28 41 15 22 1018.3 - 0.0
15/11:00am 21.2 16.5 14.2 64 4.1 W 32 43 17 23 1018.4 - 0.0
15/10:30am 22.1 18.6 14.6 62 4.4 W 26 35 14 19 1018.3 - 0.0
15/10:00am 20.7 17.6 15.5 72 3.1 WNW 26 35 14 19 1018.4 - 0.0
15/09:30am 20.0 17.7 15.6 76 2.6 WNW 22 32 12 17 1018.5 - 0.0
15/09:00am 18.6 16.1 16.1 85 1.5 WNW 24 33 13 18 1018.5 1018.5 0.0
15/08:30am 19.3 17.7 16.5 84 1.7 NW 20 28 11 15 1018.2 - 0.0
15/08:00am 17.8 16.7 16.3 91 0.9 NW 17 20 9 11 1018.0 - 0.0
15/07:30am 16.7 16.2 16.0 96 0.4 NW 13 17 7 9 1017.7 - 0.0
15/07:00am 15.9 15.1 15.2 96 0.4 NW 13 17 7 9 1017.5 - 0.0
15/06:30am 15.3 14.5 15.0 98 0.2 NW 13 15 7 8 1017.2 - 0.0
15/06:00am 15.4 14.6 15.1 98 0.2 NW 13 17 7 9 1017.2 1017.2 0.0
15/05:45am 15.4 14.5 14.9 97 0.3 NW 13 19 7 10 1017.3 - 0.0
15/05:30am 15.3 14.5 15.0 98 0.2 NW 13 17 7 9 1017.1 - 0.0
15/05:11am 15.2 14.4 15.0 99 0.1 NW 13 17 7 9 1016.9 - 0.0
15/05:00am 15.4 14.2 15.1 98 0.2 NW 15 17 8 9 1016.8 - 0.0
15/04:59am 15.4 14.2 15.1 98 0.2 NW 15 17 8 9 1016.8 - 0.0
15/04:31am 15.5 14.4 15.2 98 0.2 NW 15 19 8 10 1016.7 - 0.0
15/04:30am 15.5 14.7 15.0 97 0.3 NW 13 19 7 10 1016.7 - 0.0
15/04:00am 15.9 14.1 15.6 98 0.2 WNW 19 24 10 13 1017.0 - 0.0
15/03:40am 15.8 14.0 15.5 98 0.2 WNW 19 22 10 12 1017.0 - 0.0
15/03:30am 14.8 13.7 14.4 97 0.2 WNW 13 19 7 10 1016.9 - 0.0
15/03:24am 13.8 12.9 13.6 99 0.1 WNW 11 15 6 8 1016.9 - 0.0
15/03:00am 14.8 14.2 14.6 99 0.1 WNW 11 15 6 8 1016.6 1016.6 0.0
15/02:30am 15.0 13.6 14.6 97 0.2 NW 15 17 8 9 1016.8 - 0.0
15/02:00am 14.8 13.8 14.6 99 0.1 NW 13 15 7 8 1016.9 - 0.0
15/01:45am 13.8 12.4 13.4 97 0.2 WNW 13 15 7 8 1017.1 - 0.0
15/01:30am 13.8 12.4 13.4 97 0.2 WNW 13 15 7 8 1017.2 - 0.0
15/01:00am 14.5 13.7 14.1 97 0.2 WNW 11 13 6 7 1017.1 - 0.0
15/12:43am 14.4 13.3 14.4 100 0.0 WNW 13 15 7 8 1017.1 - 0.0
15/12:30am 14.8 13.7 14.4 97 0.2 WNW 13 15 7 8 1017.1 - 0.0
15/12:07am 14.7 13.6 14.3 97 0.2 WNW 13 13 7 7 1017.0 - 0.0
15/12:00am 14.4 13.6 14.0 97 0.2 WNW 11 11 6 6 1017.0 1017.0 0.0
 
Date/Time
WST
Temp
°C
App
Temp
°C
Dew
Point
Rel
Hum
%
Delta-T
°C
Wind Press
QNH
hPa
Press
MSL
hPa
Rain
since 9 am
mm
Dir
 
Spd
km/h
Gust
km/h
Spd
kts
Gust
kts
14/11:30pm 13.6 13.0 13.4 99 0.1 NW 9 11 5 6 1017.0 - 0.0
14/11:00pm 14.8 14.2 14.6 99 0.1 NW 11 13 6 7 1017.3 - 0.0
14/10:51pm 14.6 13.9 14.2 97 0.2 NW 11 13 6 7 1017.4 - 0.0
14/10:30pm 15.3 15.0 14.4 94 0.5 WNW 9 11 5 6 1017.5 - 0.0
14/10:00pm 14.7 14.7 14.3 97 0.2 NW 7 9 4 5 1017.6 - 0.0
14/09:30pm 15.4 15.4 15.1 98 0.2 WNW 9 11 5 6 1017.8 - 0.0
14/09:00pm 15.4 15.8 14.7 96 0.4 WNW 6 7 3 4 1017.9 1017.9 0.0
14/08:30pm 15.9 16.4 15.0 94 0.5 W 6 7 3 4 1018.1 - 0.0
14/08:01pm 16.6 17.3 15.7 94 0.5 WNW 6 7 3 4 1018.4 - 0.0
14/08:00pm 16.6 17.3 15.7 94 0.5 WNW 6 7 3 4 1018.4 - 0.0
14/07:30pm 16.8 18.8 16.0 95 0.5 CALM 0 0 0 0 1018.4 - 0.0
14/07:17pm 17.6 19.0 16.3 92 0.8 S 4 7 2 4 1018.2 - 0.0
14/07:00pm 17.6 18.4 16.3 92 0.8 S 7 9 4 5 1018.2 - 0.0
14/06:30pm 18.4 19.0 16.7 90 1.0 S 9 9 5 5 1017.9 - 0.0
14/06:00pm 19.3 20.0 17.0 86 1.4 SSE 9 15 5 8 1017.6 1017.6 0.0
14/05:51pm 19.6 19.5 17.0 85 1.6 SSE 13 17 7 9 1017.6 - 0.0
14/05:33pm 20.2 20.1 16.9 81 2.0 SSE 13 19 7 10 1017.4 - 0.0
14/05:30pm 20.3 20.2 17.0 81 2.0 SE 13 17 7 9 1017.4 - 0.0
14/05:00pm 21.0 20.5 16.9 77 2.5 SE 15 20 8 11 1017.2 - 0.0
14/04:30pm 21.7 20.8 16.8 73 3.0 ESE 17 20 9 11 1016.8 - 0.0
14/04:00pm 22.3 20.9 16.9 71 3.3 ESE 20 22 11 12 1016.4 - 0.0
14/03:30pm 23.2 21.8 17.0 68 3.8 SE 20 24 11 13 1016.2 - 0.0
14/03:00pm 23.8 22.6 17.0 65 4.2 SE 19 24 10 13 1016.2 1016.2 0.0
14/02:30pm 24.1 22.6 16.8 63 4.5 SE 20 26 11 14 1016.3 - 0.0
14/02:00pm 24.8 23.4 16.5 60 5.1 SE 19 24 10 13 1016.6 - 0.0
14/01:30pm 25.1 23.9 16.1 57 5.5 SE 17 22 9 12 1016.8 - 0.0
14/01:00pm 25.9 26.3 16.3 55 5.9 ESE 9 19 5 10 1017.3 - 0.0
14/12:30pm 26.3 26.5 14.8 49 6.9 NW 7 11 4 6 1018.0 - 0.0
14/12:00pm 25.9 26.0 14.5 49 6.8 N 7 15 4 8 1018.5 1018.5 0.0
14/11:30am 24.1 24.0 14.9 56 5.5 ESE 9 13 5 7 1018.9 - 0.0
14/11:00am 24.0 23.9 15.0 57 5.4 NNW 9 15 5 8 1019.4 - 0.0
14/10:30am 22.9 23.7 15.8 64 4.3 NE 6 15 3 8 1019.6 - 0.0
14/10:00am 22.9 23.3 16.3 66 4.0 E 9 24 5 13 1019.8 - 0.0
14/09:30am 21.8 21.6 15.8 68 3.6 ENE 11 15 6 8 1020.3 - 0.0
14/09:00am 20.8 20.6 15.8 73 3.0 E 11 17 6 9 1020.6 1020.6 0.0
14/08:30am 19.8 18.9 15.9 78 2.3 E 15 20 8 11 1020.6 - 0.0
14/08:00am 19.0 18.8 16.7 86 1.4 ENE 13 15 7 8 1020.4 - 0.0
14/07:30am 18.3 18.3 16.3 88 1.2 ENE 11 13 6 7 1020.5 - 0.0
14/07:00am 17.8 18.1 16.1 90 1.0 ENE 9 11 5 6 1020.4 - 0.0
14/06:30am 17.7 17.6 16.0 90 1.0 E 11 15 6 8 1020.3 - 0.0
14/06:00am 17.6 17.9 16.1 91 0.9 E 9 11 5 6 1020.5 1020.5 0.0
14/05:30am 17.5 17.8 16.0 91 0.9 E 9 11 5 6 1020.5 - 0.0
14/05:00am 17.1 17.7 15.9 93 0.7 ENE 7 9 4 5 1020.6 - 0.0
14/04:30am 17.1 17.7 15.9 93 0.7 ENE 7 9 4 5 1020.6 - 0.0
14/04:00am 17.4 17.7 15.9 91 0.9 E 9 11 5 6 1020.7 - 0.0
14/03:30am 17.4 17.3 16.0 91 0.8 ENE 11 17 6 9 1020.9 - 0.0
14/03:00am 17.2 17.0 15.7 91 0.9 ENE 11 15 6 8 1021.0 1021.0 0.0
14/02:30am 17.1 16.5 15.6 91 0.9 ESE 13 17 7 9 1021.3 - 0.0
14/02:00am 17.4 16.4 15.7 90 1.0 ESE 15 20 8 11 1021.7 - 0.0
14/01:30am 17.4 16.7 15.3 87 1.2 E 13 17 7 9 1022.0 - 0.0
14/01:00am 18.1 18.0 15.9 87 1.3 E 11 15 6 8 1022.3 - 0.0
14/12:30am 18.3 17.0 15.9 86 1.4 E 17 20 9 11 1022.4 - 0.0
14/12:00am 18.4 17.1 15.9 85 1.5 E 17 24 9 13 1022.6 1022.6 0.0
 
Date/Time
WST
Temp
°C
App
Temp
°C
Dew
Point
Rel
Hum
%
Delta-T
°C
Wind Press
QNH
hPa
Press
MSL
hPa
Rain
since 9 am
mm
Dir
 
Spd
km/h
Gust
km/h
Spd
kts
Gust
kts
13/11:35pm 18.2 17.4 16.2 88 1.2 E 15 20 8 11 1022.8 - 0.0
13/11:30pm 18.2 17.4 16.2 88 1.2 E 15 20 8 11 1022.9 - 0.0
13/11:00pm 18.2 17.1 16.4 89 1.1 E 17 22 9 12 1023.2 - 0.0
13/10:56pm 18.2 17.1 16.4 89 1.1 ESE 17 20 9 11 1023.3 - 0.0
13/10:30pm 18.1 17.3 16.1 88 1.2 ESE 15 17 8 9 1023.7 - 0.0
13/10:00pm 18.0 17.1 15.8 87 1.3 ESE 15 20 8 11 1023.8 - 0.0
13/09:30pm 18.1 16.4 15.7 86 1.4 E 19 24 10 13 1023.8 - 0.0
13/09:00pm 18.2 17.3 15.8 86 1.4 E 15 20 8 11 1023.6 1023.6 0.0
13/08:30pm 18.0 17.2 16.0 88 1.2 E 15 20 8 11 1023.8 - 0.0
13/08:00pm 17.9 16.4 16.2 90 1.0 E 19 22 10 12 1023.8 - 0.0
13/07:30pm 17.8 17.1 16.5 92 0.8 E 15 20 8 11 1023.5 - 0.0
13/07:17pm 17.8 17.6 16.8 94 0.6 ESE 13 17 7 9 1023.8 - 0.0
13/07:05pm 17.8 16.8 16.6 93 0.7 ESE 17 20 9 11 1023.6 - 0.0
13/07:02pm 17.8 16.8 16.6 93 0.7 ESE 17 22 9 12 1023.6 - 0.0
13/07:00pm 17.8 16.8 16.6 93 0.7 ESE 17 22 9 12 1023.6 - 0.0
13/06:58pm 17.8 16.8 16.6 93 0.7 ESE 17 22 9 12 1023.6 - 0.0
13/06:34pm 18.0 17.4 16.7 92 0.8 ESE 15 20 8 11 1023.5 - 0.0
13/06:30pm 18.0 17.3 16.5 91 0.9 ESE 15 20 8 11 1023.4 - 0.0
13/06:23pm 18.2 17.5 16.4 89 1.1 ESE 15 19 8 10 1023.3 - 0.0
13/06:00pm 18.5 17.2 15.8 84 1.6 ESE 17 24 9 13 1023.1 1023.1 0.0
13/05:55pm 18.5 16.8 15.8 84 1.6 ESE 19 24 10 13 1023.0 - 0.0
13/05:40pm 18.6 16.9 15.7 83 1.7 ESE 19 22 10 12 1022.5 - 0.0
13/05:36pm 18.7 16.9 15.5 81 1.9 E 19 28 10 15 1022.4 - 0.0
13/05:30pm 18.7 16.6 15.3 80 2.0 E 20 28 11 15 1022.3 - 0.0
13/05:11pm 18.9 17.6 15.7 82 1.9 ESE 17 22 9 12 1022.5 - 0.0
13/05:00pm 18.9 17.1 15.5 80 2.0 ESE 19 22 10 12 1022.5 - 0.0
13/04:30pm 19.0 16.7 15.6 80 2.0 E 22 28 12 15 1022.6 - 0.0
13/04:00pm 18.4 16.2 16.0 86 1.4 E 22 30 12 16 1022.8 - 0.0
13/03:30pm 18.9 17.1 15.9 83 1.8 ESE 20 28 11 15 1022.6 - 0.0
13/03:00pm 19.1 16.9 15.9 82 1.9 ESE 22 30 12 16 1022.3 1022.3 0.0
13/02:30pm 19.5 16.7 15.4 77 2.4 ESE 24 30 13 16 1022.5 - 0.0
13/02:00pm 19.7 17.0 15.5 77 2.5 ESE 24 30 13 16 1022.4 - 0.0
13/01:30pm 19.7 17.3 15.3 76 2.6 ESE 22 28 12 15 1022.5 - 0.0
13/01:00pm 19.7 17.6 15.3 76 2.6 E 20 24 11 13 1022.5 - 0.0
13/12:30pm 19.8 17.4 15.4 76 2.6 ESE 22 30 12 16 1023.0 - 0.0
13/12:21pm 19.6 17.2 15.4 77 2.5 ESE 22 30 12 16 1023.1 - 0.0

Other Formats:

Comma delimited format used in spreadsheet applications
http://www.bom.gov.au/fwo/IDW60801/IDW60801.94802.axf

JavaScript Object Notation format (JSON) in row-major order
http://www.bom.gov.au/fwo/IDW60801/IDW60801.94802.json